PROFILE

 METAR AND TAF INFORMATION
ADDS - METARS form results

(1507 UTC 20 June 2019)
http://aviationweather.gov/metar/data/
 
EDDH 201450Z 30007KT 270V350 9999 BKN023TCU 21/15 Q1011 TEMPO SHRA
EDDH 201420Z 32005KT 270V030 9999 FEW022 21/15 Q1010 NOSIG
TAF EDDH 201100Z 2012/2118 25010KT 9999 SCT030 TEMPO 2012/2022 SHRA SCT012 BKN020CB PROB30 TEMPO 2012/2018 25015G30KT 4000 TSRA BKN012CB BECMG 2018/2020 30004KT PROB40 TEMPO 2100/2105 2500 BCFG BECMG 2108/2110 26010KT BECMG 2116/2118 32005KT 

 AIRPORT MAP

 RUNWAY INFORMATION
Runway 05 Runway length 10663 ft Runway width 150 ft
Runway elevation 32 ft Runway displaced threshold 978 ft Runway heading 50
Runway 23 Runway length 10663 ft Runway width 150 ft
Runway elevation 43 ft Runway displaced threshold 512 ft Runway heading 230
Runway 15 Runway length 12028 ft Runway width 150 ft
Runway elevation 53 ft Runway displaced threshold 0 ft Runway heading 153
Runway 33 Runway length 12028 ft Runway width 150 ft
Runway elevation 35 ft Runway displaced threshold 1464 ft Runway heading 333

 AIRPORT FREQUENCIES
Type ATIS Name ATIS Frequency 123.125 MHZ
Type DIR Name DIRECTOR Frequency 118.2 MHZ
Type GND Name GND Frequency 121.8 MHZ
Type RDR Name BREMEN RAD Frequency 134.25 MHZ
Type RMP Name APRON Frequency 121.7 MHZ
Type TWR Name TWR Frequency 126.85 MHZ

 AIRPORT NEAR NAVIGATION AIDS
Type DME Name Alster Frequency 115800 KHZ
Type NDB Name Hamburg West Frequency 351 KHZ
Type NDB Name Hamburg North Frequency 323 KHZ
Type VORTAC Name Hamburg Frequency 113100 KHZ
Type NDB Name Hamburg Frequency 339 KHZ